עמוד ראשי
METAR-TAF:

METAR-TAF

שדות תעופה :

Yap, מיקרונזיה

קו רוחב: 09-29N, קו אורך: 138-05E, גובה: 28מטר

תצפית מזג אוויר נוכחית

הדו"ח נערך לפני 49דקות, בשעה 20:52 UTC
רוח 5קשר עם כיוונים משתנים
טמפרטורת 27 צלסיוס
לחות 89%
לחץ 1008 hPa
ראות: 19.3קילומטר
עננים פזורים בגובה 1600רגל
עננים בינוניים בגובה 13000רגל
מעונן בגובה 30000רגל

METAR: PTYA 242052Z VRB05KT 12SM SCT016 BKN130 OVC300 27/25 A2977 RMK SLP083 8/178 T02680253 52008

זמן: 07:41 (21:41 UTC)

תחזית

הדו"ח נערך לפני 4 שעות ו 13דקות, בשעה 17:28 UTC
תחזית בתוקף מ 24 ב 18 UTC עד 25 ב 18 UTC
רוח 9קשר מכיוון מזרח
ראות: 10קילומטר
עננים פזורים בגובה 1500רגל
עננים בינוניים בגובה 4000רגל
עננים בינוניים בגובה 12000רגל
ממטרי גשם קלים
זמנית מ -
24 ב 20 UTC עד 24 ב 24 UTC
רוח 9קשר עם כיוונים משתנים עם משבים עד 18קשר
ראות: 6.4קילומטר
עננים בינוניים בגובה 1500רגל
מעונן בגובה 3000רגל
ממטרי גשם,

TAF: PTYA 241728Z 2418/2518 10009KT P6SM -SHRA SCT015 BKN040 BKN120 TEMPO 2420/2424 VRB09G18KT 4SM SHRA BKN015 OVC030

תצפיות ותחזיות מזג אוויר לגבי יותר מ- 4,000 שדות תעופה ברחבי העולם. דוחות METAR ו- TAF.

התחנות הזמינות מסומנות בנקודות צהובות ואדומות על גבי המפה.

העבר את העכבר לנקודה הצבעונית על מנת לראות את שם התחנה.

לאחר מכן, לחץ כדי לראות את תוכן ואת תחזיות מזג האוויר.

כדי לשנות את המפה: לחץ על הכפתורים הירוקים עם הפלוס השחור כדי להתקרב; על הכפתור הירוק עם המקף כדי להתרחק; או בחיצים הירוקים למפות סמוכות.


METAR-TAF: